createdAt,value
2018-03-02T00:01:48.318Z,98775.88
2018-03-02T00:04:49.537Z,98782.28
2018-03-02T00:07:50.754Z,98780.17
2018-03-02T00:10:52.040Z,98774.50
2018-03-02T00:13:53.986Z,98776.28
2018-03-02T00:16:55.924Z,98775.02
2018-03-02T00:19:57.116Z,98769.73
2018-03-02T00:22:58.340Z,98771.05
2018-03-02T00:25:59.552Z,98765.39
2018-03-02T00:29:00.780Z,98749.85
2018-03-02T00:32:01.982Z,98753.80
2018-03-02T00:35:03.189Z,98736.89
2018-03-02T00:38:04.400Z,98734.73
2018-03-02T00:41:05.648Z,98723.33
2018-03-02T00:44:06.896Z,98729.08
2018-03-02T00:47:08.114Z,98731.22
2018-03-02T00:50:09.293Z,98725.19
2018-03-02T00:53:10.480Z,98729.92
2018-03-02T00:56:11.711Z,98725.09
2018-03-02T00:59:13.669Z,98729.91
2018-03-02T01:02:14.876Z,98725.55
2018-03-02T01:05:16.101Z,98722.45
2018-03-02T01:08:18.025Z,98714.75
2018-03-02T01:11:19.264Z,98705.11
2018-03-02T01:14:20.471Z,98707.83
2018-03-02T01:17:21.702Z,98706.01
2018-03-02T01:20:22.892Z,98697.03
2018-03-02T01:23:24.105Z,98702.55
2018-03-02T01:26:26.068Z,98691.37
2018-03-02T01:29:27.299Z,98697.19
2018-03-02T01:32:28.520Z,98688.16
2018-03-02T01:35:29.721Z,98689.43
2018-03-02T01:38:30.921Z,98685.75
2018-03-02T01:41:32.887Z,98685.78
2018-03-02T01:44:34.108Z,98678.27
2018-03-02T01:47:35.369Z,98673.11
2018-03-02T01:50:36.556Z,98678.75
2018-03-02T01:53:37.772Z,98670.64
2018-03-02T01:56:38.975Z,98675.70
2018-03-02T01:59:40.161Z,98678.36
2018-03-02T02:02:41.384Z,98678.80
2018-03-02T02:05:42.603Z,98665.23
2018-03-02T02:08:44.545Z,98671.32
2018-03-02T02:11:45.725Z,98666.27
2018-03-02T02:14:46.988Z,98650.66
2018-03-02T02:17:48.189Z,98654.63
2018-03-02T02:20:49.392Z,98649.27
2018-03-02T02:23:51.557Z,98644.94
2018-03-02T02:26:52.732Z,98638.52
2018-03-02T02:29:53.933Z,98657.09
2018-03-02T02:32:55.956Z,98635.05
2018-03-02T02:35:57.157Z,98626.85
2018-03-02T02:38:58.392Z,98626.80
2018-03-02T02:41:59.569Z,98630.15
2018-03-02T02:45:00.788Z,98632.32
2018-03-02T02:48:02.011Z,98628.37
2018-03-02T02:51:03.223Z,98627.98
2018-03-02T02:54:04.443Z,98625.02
2018-03-02T02:57:05.652Z,98625.42
2018-03-02T03:00:06.867Z,98634.82
2018-03-02T03:03:08.833Z,98631.14
2018-03-02T03:06:10.038Z,98630.22
2018-03-02T03:09:11.255Z,98628.91
2018-03-02T03:12:12.469Z,98632.27
2018-03-02T03:15:13.692Z,98628.90
2018-03-02T03:18:14.931Z,98623.28
2018-03-02T03:21:16.133Z,98627.00
2018-03-02T03:24:18.092Z,98622.74
2018-03-02T03:27:19.299Z,98615.39
2018-03-02T03:30:20.489Z,98615.17
2018-03-02T03:33:21.681Z,98608.23
2018-03-02T03:36:22.895Z,98601.81
2018-03-02T03:39:24.088Z,98605.13
2018-03-02T03:45:55.276Z,98585.75
2018-03-02T03:48:56.484Z,98584.77
2018-03-02T03:51:58.414Z,98590.09
2018-03-02T03:54:59.637Z,98584.47
2018-03-02T03:58:00.844Z,98577.17
2018-03-02T04:01:02.068Z,98566.23
2018-03-02T04:04:03.292Z,98586.01
2018-03-02T04:07:04.477Z,98579.70
2018-03-02T04:10:06.440Z,98582.63
2018-03-02T04:13:07.652Z,98584.08
2018-03-02T04:16:08.868Z,98573.77
2018-03-02T04:19:10.801Z,98575.84
2018-03-02T04:22:12.083Z,98565.84
2018-03-02T04:25:13.267Z,98564.20
2018-03-02T04:28:15.236Z,98555.72
2018-03-02T04:31:16.434Z,98552.70
2018-03-02T04:34:17.632Z,98548.14
2018-03-02T04:37:18.836Z,98531.77
2018-03-02T04:40:20.040Z,98522.75
2018-03-02T04:43:21.376Z,98508.88
2018-03-02T04:46:23.303Z,98525.66
2018-03-02T04:49:24.512Z,98527.56
2018-03-02T04:52:26.464Z,98518.90
2018-03-02T04:55:27.661Z,98521.72
2018-03-02T04:58:29.627Z,98517.14
2018-03-02T05:01:31.549Z,98513.20
2018-03-02T05:04:39.771Z,98523.53
2018-03-02T05:07:40.990Z,98509.38
2018-03-02T05:10:42.917Z,98510.59
2018-03-02T05:13:44.117Z,98496.84
2018-03-02T05:16:45.319Z,98495.73
2018-03-02T05:19:46.577Z,98499.22
2018-03-02T05:22:48.502Z,98500.28
2018-03-02T05:25:49.720Z,98490.30
2018-03-02T05:28:50.931Z,98487.69
2018-03-02T05:31:52.148Z,98487.02
2018-03-02T05:34:53.356Z,98477.76
2018-03-02T05:37:54.623Z,98475.53
2018-03-02T05:40:55.828Z,98480.81
2018-03-02T05:43:57.757Z,98480.88
2018-03-02T05:46:58.938Z,98481.19
2018-03-02T05:50:00.164Z,98481.95
2018-03-02T05:53:01.377Z,98475.14
2018-03-02T05:56:03.328Z,98471.97
2018-03-02T05:59:04.540Z,98478.02
2018-03-02T06:02:05.729Z,98468.86
2018-03-02T06:05:06.921Z,98486.21
2018-03-02T06:08:08.164Z,98482.92
2018-03-02T06:11:09.361Z,98468.11
2018-03-02T06:14:10.611Z,98485.40
2018-03-02T06:17:11.836Z,98478.02
2018-03-02T06:20:13.048Z,98476.19
2018-03-02T06:23:14.269Z,98476.29
2018-03-02T06:26:15.476Z,98458.08
2018-03-02T06:29:16.684Z,98461.73
2018-03-02T06:32:17.924Z,98457.59
2018-03-02T06:35:19.128Z,98451.23
2018-03-02T06:38:20.328Z,98444.50
2018-03-02T06:41:21.656Z,98445.94
2018-03-02T06:44:22.873Z,98444.35
2018-03-02T06:47:24.831Z,98449.95
2018-03-02T06:50:26.784Z,98449.72
2018-03-02T06:53:28.020Z,98446.90
2018-03-02T06:56:29.221Z,98447.78
2018-03-02T06:59:30.448Z,98447.65
2018-03-02T07:02:32.190Z,98447.84
2018-03-02T07:05:33.405Z,98444.03
2018-03-02T07:08:34.659Z,98447.34
2018-03-02T07:11:35.888Z,98439.03
2018-03-02T07:14:37.105Z,98438.11
2018-03-02T07:17:38.327Z,98442.07
2018-03-02T07:20:39.579Z,98434.11
2018-03-02T07:23:40.795Z,98438.39
2018-03-02T07:26:42.032Z,98438.72
2018-03-02T07:29:43.480Z,98435.73
2018-03-02T07:32:44.727Z,98424.61
2018-03-02T07:35:45.928Z,98421.57
2018-03-02T07:38:47.144Z,98416.34
2018-03-02T07:41:49.069Z,98419.77
2018-03-02T07:44:50.282Z,98425.92
2018-03-02T07:47:52.237Z,98417.34
2018-03-02T07:50:53.444Z,98411.80
2018-03-02T07:53:54.634Z,98413.97
2018-03-02T07:56:55.829Z,98407.83
2018-03-02T07:59:57.016Z,98411.60
2018-03-02T08:02:58.240Z,98408.61
2018-03-02T08:05:59.439Z,98408.70
2018-03-02T08:09:00.672Z,98399.66
2018-03-02T08:12:01.992Z,98396.30
2018-03-02T08:15:03.206Z,98410.22
2018-03-02T08:18:04.405Z,98395.66
2018-03-02T08:21:05.597Z,98405.62
2018-03-02T08:24:07.022Z,98403.09
2018-03-02T08:27:08.256Z,98397.08
2018-03-02T08:30:09.458Z,98384.24
2018-03-02T08:33:10.698Z,98388.89
2018-03-02T08:36:12.630Z,98387.18
2018-03-02T08:39:13.829Z,98379.09
2018-03-02T08:42:15.073Z,98357.50
2018-03-02T08:45:16.282Z,98366.62
2018-03-02T08:48:17.486Z,98360.14
2018-03-02T08:51:18.689Z,98365.32
2018-03-02T08:54:20.637Z,98362.71
2018-03-02T08:57:21.840Z,98346.22
2018-03-02T09:00:23.052Z,98365.32
2018-03-02T09:03:24.265Z,98357.11
2018-03-02T09:06:25.471Z,98354.06
2018-03-02T09:09:26.669Z,98362.22
2018-03-02T09:12:28.868Z,98370.06
2018-03-02T09:15:30.093Z,98360.83
2018-03-02T09:18:31.300Z,98367.41
2018-03-02T09:21:32.536Z,98352.22
2018-03-02T09:24:34.591Z,98340.36
2018-03-02T09:27:36.578Z,98344.86
2018-03-02T09:30:37.786Z,98337.73
2018-03-02T09:33:39.016Z,98335.66
2018-03-02T09:36:40.213Z,98327.92
2018-03-02T09:39:41.417Z,98340.39
2018-03-02T09:42:42.685Z,98321.04
2018-03-02T09:45:43.848Z,98333.16
2018-03-02T09:48:45.037Z,98323.75
2018-03-02T09:51:46.973Z,98314.59
2018-03-02T09:54:48.184Z,98307.36
2018-03-02T09:57:50.172Z,98320.23
2018-03-02T10:00:52.132Z,98321.16
2018-03-02T10:03:53.532Z,98312.89
2018-03-02T10:06:55.036Z,98311.52
2018-03-02T10:09:56.284Z,98307.64
2018-03-02T10:12:57.524Z,98314.66
2018-03-02T10:15:58.796Z,98320.67
2018-03-02T10:19:00.395Z,98304.91
2018-03-02T10:22:01.722Z,98317.48
2018-03-02T10:25:02.929Z,98318.30
2018-03-02T10:28:04.162Z,98318.44
2018-03-02T10:31:05.361Z,98314.22
2018-03-02T10:34:06.565Z,98315.31
2018-03-02T10:37:07.823Z,98319.16
2018-03-02T10:40:09.753Z,98324.77
2018-03-02T10:43:10.949Z,98329.91
2018-03-02T10:46:12.900Z,98331.27
2018-03-02T10:49:14.150Z,98327.78
2018-03-02T10:52:15.353Z,98336.10
2018-03-02T10:55:17.306Z,98332.58
2018-03-02T10:58:18.516Z,98331.69
2018-03-02T11:01:25.669Z,98326.88
2018-03-02T11:04:33.078Z,98328.23
2018-03-02T11:07:34.300Z,98322.65
2018-03-02T11:10:35.514Z,98332.53
2018-03-02T11:13:36.771Z,98322.90
2018-03-02T11:16:37.965Z,98322.89
2018-03-02T11:19:39.910Z,98307.77
2018-03-02T11:22:41.140Z,98319.42
2018-03-02T11:25:42.343Z,98317.50
2018-03-02T11:28:43.645Z,98311.73
2018-03-02T11:31:44.865Z,98311.50
2018-03-02T11:34:46.090Z,98309.63
2018-03-02T11:37:47.316Z,98313.06
2018-03-02T11:40:49.245Z,98307.14
2018-03-02T11:43:50.445Z,98298.59
2018-03-02T11:46:51.641Z,98292.95
2018-03-02T11:49:52.829Z,98285.70
2018-03-02T11:52:54.034Z,98281.02
2018-03-02T11:55:55.993Z,98288.57
2018-03-02T11:58:57.220Z,98280.98
2018-03-02T12:01:58.412Z,98280.61
2018-03-02T12:04:59.632Z,98283.89
2018-03-02T12:08:00.849Z,98278.89
2018-03-02T12:11:02.065Z,98277.26
2018-03-02T12:14:03.278Z,98283.25
2018-03-02T12:17:04.486Z,98289.69
2018-03-02T12:20:05.720Z,98283.17
2018-03-02T12:23:07.657Z,98282.19
2018-03-02T12:26:08.871Z,98274.41
2018-03-02T12:29:10.084Z,98283.78
2018-03-02T12:32:12.054Z,98278.69
2018-03-02T12:35:13.285Z,98265.22
2018-03-02T12:38:14.481Z,98277.94
2018-03-02T12:41:15.669Z,98278.16
2018-03-02T12:44:16.887Z,98289.02
2018-03-02T12:47:18.093Z,98281.97
2018-03-02T12:50:19.285Z,98282.61
2018-03-02T12:53:20.528Z,98284.93
2018-03-02T12:56:22.612Z,98286.55
2018-03-02T12:59:24.546Z,98282.98
2018-03-02T13:02:25.773Z,98297.53
2018-03-02T13:05:27.037Z,98299.38
2018-03-02T13:08:28.245Z,98295.11
2018-03-02T13:11:29.445Z,98303.17
2018-03-02T13:14:31.403Z,98305.84
2018-03-02T13:17:32.593Z,98301.68
2018-03-02T13:20:34.968Z,98286.69
2018-03-02T13:23:36.608Z,98289.33
2018-03-02T13:26:57.248Z,98273.68
2018-03-02T13:29:58.496Z,98261.82
2018-03-02T13:33:18.337Z,98271.52
2018-03-02T13:36:20.378Z,98256.81
2018-03-02T13:39:40.081Z,98246.53
2018-03-02T13:42:41.320Z,98249.08
2018-03-02T13:45:42.526Z,98237.39
2018-03-02T13:49:02.988Z,98256.94
2018-03-02T13:52:04.198Z,98253.74
2018-03-02T13:55:05.528Z,98254.72
2018-03-02T13:58:06.788Z,98262.57
2018-03-02T14:01:08.098Z,98254.03
2018-03-02T14:04:28.547Z,98255.31
2018-03-02T14:07:29.745Z,98258.66
2018-03-02T14:10:30.954Z,98250.02
2018-03-02T14:13:32.240Z,98258.37
2018-03-02T14:16:33.441Z,98255.67
2018-03-02T14:19:34.669Z,98252.46
2018-03-02T14:22:35.960Z,98251.84
2018-03-02T14:25:37.161Z,98241.13
2018-03-02T14:28:39.125Z,98235.96
2018-03-02T14:31:40.741Z,98238.05
2018-03-02T14:34:42.021Z,98233.41
2018-03-02T14:37:43.234Z,98218.44
2018-03-02T14:40:52.035Z,98226.56
2018-03-02T14:43:53.969Z,98234.96
2018-03-02T14:46:55.155Z,98231.03
2018-03-02T14:49:56.436Z,98234.77
2018-03-02T14:52:57.655Z,98230.17
2018-03-02T14:55:58.905Z,98227.19
2018-03-02T14:59:00.876Z,98233.13
2018-03-02T15:02:02.845Z,98233.81
2018-03-02T15:05:04.050Z,98227.20
2018-03-02T15:08:05.305Z,98223.81
2018-03-02T15:11:06.654Z,98228.89
2018-03-02T15:14:08.609Z,98240.86
2018-03-02T15:17:09.879Z,98235.79
2018-03-02T15:20:11.116Z,98230.83
2018-03-02T15:23:12.336Z,98244.67
2018-03-02T15:26:13.561Z,98248.23
2018-03-02T15:29:14.765Z,98251.55
2018-03-02T15:32:15.957Z,98247.17
2018-03-02T15:35:17.177Z,98250.66
2018-03-02T15:38:19.199Z,98259.23
2018-03-02T15:41:20.417Z,98255.31
2018-03-02T15:44:22.396Z,98244.07
2018-03-02T15:47:24.362Z,98236.73
2018-03-02T15:50:26.341Z,98230.38
2018-03-02T15:53:28.336Z,98217.13
2018-03-02T15:56:30.284Z,98218.44
2018-03-02T15:59:31.481Z,98215.94
2018-03-02T16:02:33.478Z,98211.05
2018-03-02T16:05:34.670Z,98214.34
2018-03-02T16:08:36.637Z,98208.26
2018-03-02T16:11:37.843Z,98222.18
2018-03-02T16:14:39.041Z,98219.65
2018-03-02T16:17:40.271Z,98228.98
2018-03-02T16:20:41.470Z,98234.42
2018-03-02T16:23:42.675Z,98240.54
2018-03-02T16:26:43.884Z,98236.81
2018-03-02T16:29:45.140Z,98246.42
2018-03-02T16:32:47.097Z,98244.78
2018-03-02T16:35:48.287Z,98255.52
2018-03-02T16:38:49.473Z,98268.72
2018-03-02T16:41:50.660Z,98274.72
2018-03-02T16:44:51.864Z,98275.97
2018-03-02T16:47:53.820Z,98276.72
2018-03-02T16:50:55.081Z,98294.59
2018-03-02T16:53:56.336Z,98296.13
2018-03-02T16:56:57.547Z,98305.84
2018-03-02T16:59:58.771Z,98293.23
2018-03-02T17:03:00.008Z,98301.49
2018-03-02T17:06:01.256Z,98307.84
2018-03-02T17:09:02.554Z,98305.66
2018-03-02T17:12:03.737Z,98312.89
2018-03-02T17:15:05.693Z,98306.58
2018-03-02T17:18:06.908Z,98316.30
2018-03-02T17:21:08.135Z,98307.42
2018-03-02T17:24:10.094Z,98305.89
2018-03-02T17:27:11.312Z,98316.52
2018-03-02T17:30:12.521Z,98320.28
2018-03-02T17:33:13.751Z,98326.36
2018-03-02T17:36:14.960Z,98327.73
2018-03-02T17:39:17.185Z,98327.48
2018-03-02T17:42:18.381Z,98332.45
2018-03-02T17:45:20.334Z,98326.02
2018-03-02T17:48:21.631Z,98345.64
2018-03-02T17:51:22.835Z,98346.55
2018-03-02T17:54:24.412Z,98349.83
2018-03-02T17:57:25.644Z,98348.44
2018-03-02T18:00:27.619Z,98350.13
2018-03-02T18:03:28.848Z,98346.70
2018-03-02T18:06:30.170Z,98356.02
2018-03-02T18:09:31.424Z,98351.76
2018-03-02T18:12:33.436Z,98353.50
2018-03-02T18:15:34.635Z,98356.61
2018-03-02T18:18:35.852Z,98359.71
2018-03-02T18:21:37.151Z,98369.53
2018-03-02T18:24:38.429Z,98363.03
2018-03-02T18:27:40.349Z,98364.95
2018-03-02T18:30:41.564Z,98371.72
2018-03-02T18:33:43.259Z,98369.02
2018-03-02T18:36:44.438Z,98372.41
2018-03-02T18:39:46.420Z,98376.70
2018-03-02T18:42:48.360Z,98380.94
2018-03-02T18:45:49.557Z,98367.20
2018-03-02T18:48:51.510Z,98379.00
2018-03-02T18:51:52.873Z,98373.83
2018-03-02T18:54:54.125Z,98379.47
2018-03-02T18:57:55.376Z,98369.97
2018-03-02T19:00:56.609Z,98376.70
2018-03-02T19:03:57.825Z,98378.56
2018-03-02T19:06:59.052Z,98372.59
2018-03-02T19:10:00.465Z,98377.20
2018-03-02T19:13:02.758Z,98377.80
2018-03-02T19:16:04.912Z,98372.44
2018-03-02T19:19:06.432Z,98367.73
2018-03-02T19:22:08.189Z,98374.59
2018-03-02T19:25:10.210Z,98378.39
2018-03-02T19:28:11.458Z,98371.27
2018-03-02T19:31:12.987Z,98365.64
2018-03-02T19:34:15.220Z,98375.11
2018-03-02T19:37:16.730Z,98377.63
2018-03-02T19:40:19.019Z,98384.70
2018-03-02T19:43:20.414Z,98385.19
2018-03-02T19:46:22.380Z,98393.80
2018-03-02T19:49:23.963Z,98390.75
2018-03-02T19:52:25.185Z,98404.72
2018-03-02T19:55:26.405Z,98394.53
2018-03-02T19:58:28.027Z,98394.98
2018-03-02T20:01:29.540Z,98391.87
2018-03-02T20:04:31.103Z,98388.98
2018-03-02T20:07:32.710Z,98391.06
2018-03-02T20:10:34.290Z,98388.69
2018-03-02T20:13:35.865Z,98399.53
2018-03-02T20:16:37.401Z,98404.38
2018-03-02T20:19:38.681Z,98397.42
2018-03-02T20:22:39.961Z,98395.54
2018-03-02T20:25:41.171Z,98390.03
2018-03-02T20:28:43.217Z,98392.09
2018-03-02T20:31:44.428Z,98403.58
2018-03-02T20:34:46.408Z,98404.73
2018-03-02T20:37:48.346Z,98408.93
2018-03-02T20:40:49.718Z,98412.38
2018-03-02T20:43:50.960Z,98405.44
2018-03-02T20:46:52.177Z,98398.94
2018-03-02T20:49:54.145Z,98404.95
2018-03-02T20:52:56.107Z,98404.05
2018-03-02T20:55:57.305Z,98408.92
2018-03-02T20:58:58.532Z,98407.91
2018-03-02T21:01:59.725Z,98412.33
2018-03-02T21:05:04.946Z,98407.62
2018-03-02T21:08:07.336Z,98405.36
2018-03-02T21:11:09.568Z,98403.97
2018-03-02T21:14:11.064Z,98397.40
2018-03-02T21:17:12.582Z,98400.58
2018-03-02T21:20:14.168Z,98411.82
2018-03-02T21:23:15.477Z,98412.14
2018-03-02T21:26:17.953Z,98409.64
2018-03-02T21:29:19.185Z,98413.96
2018-03-02T21:32:21.000Z,98419.55
2018-03-02T21:35:22.357Z,98419.44
2018-03-02T21:38:23.921Z,98418.36
2018-03-02T21:41:25.289Z,98409.10
2018-03-02T21:44:26.560Z,98411.58
2018-03-02T21:47:27.821Z,98406.41
2018-03-02T21:50:29.589Z,98408.06
2018-03-02T21:53:31.523Z,98412.93
2018-03-02T21:56:32.851Z,98411.19
2018-03-02T21:59:34.060Z,98408.88
2018-03-02T22:02:35.997Z,98409.47
2018-03-02T22:05:37.225Z,98406.52
2018-03-02T22:08:38.441Z,98396.36
2018-03-02T22:11:39.742Z,98398.86
2018-03-02T22:14:40.957Z,98397.55
2018-03-02T22:17:42.172Z,98385.82
2018-03-02T22:20:43.376Z,98381.48
2018-03-02T22:23:44.676Z,98390.54
2018-03-02T22:26:46.640Z,98375.84
2018-03-02T22:29:47.875Z,98382.24
2018-03-02T22:32:49.034Z,98394.01
2018-03-02T22:35:50.267Z,98391.13
2018-03-02T22:38:51.480Z,98394.50
2018-03-02T22:41:52.770Z,98380.15
2018-03-02T22:44:54.727Z,98392.66
2018-03-02T22:47:55.928Z,98390.67
2018-03-02T22:50:57.187Z,98394.35
2018-03-02T22:53:58.401Z,98393.48
2018-03-02T22:56:59.616Z,98392.62
2018-03-02T23:00:00.808Z,98393.50
2018-03-02T23:03:02.028Z,98394.43
2018-03-02T23:06:04.032Z,98396.41
2018-03-02T23:09:05.229Z,98395.73
2018-03-02T23:12:07.165Z,98403.32
2018-03-02T23:15:08.404Z,98397.98
2018-03-02T23:18:09.575Z,98393.89
2018-03-02T23:21:11.519Z,98386.15
2018-03-02T23:24:12.721Z,98387.55
2018-03-02T23:27:13.928Z,98388.34
2018-03-02T23:30:15.168Z,98381.80
2018-03-02T23:33:16.380Z,98387.02
2018-03-02T23:36:17.588Z,98383.92
2018-03-02T23:39:18.803Z,98380.86
2018-03-02T23:42:19.988Z,98379.57
2018-03-02T23:45:21.980Z,98377.50
2018-03-02T23:48:23.262Z,98374.00
2018-03-02T23:51:25.192Z,98370.93
2018-03-02T23:54:26.398Z,98370.06
2018-03-02T23:57:27.580Z,98360.27
